sensor_id;sensor_type;location;lat;lon;timestamp;temperature;humidity
17948;DHT22;9099;47.958;11.366;2023-04-25T00:00:44;9.00;99.90
17948;DHT22;9099;47.958;11.366;2023-04-25T00:03:11;9.00;99.90
17948;DHT22;9099;47.958;11.366;2023-04-25T00:05:39;9.00;99.90
17948;DHT22;9099;47.958;11.366;2023-04-25T00:08:06;8.90;99.90
17948;DHT22;9099;47.958;11.366;2023-04-25T00:10:32;8.90;99.90
17948;DHT22;9099;47.958;11.366;2023-04-25T00:12:59;8.80;99.90
17948;DHT22;9099;47.958;11.366;2023-04-25T00:15:28;8.70;99.90
17948;DHT22;9099;47.958;11.366;2023-04-25T00:17:56;8.70;99.90
17948;DHT22;9099;47.958;11.366;2023-04-25T00:20:23;8.60;99.90
17948;DHT22;9099;47.958;11.366;2023-04-25T00:22:51;8.50;99.90
17948;DHT22;9099;47.958;11.366;2023-04-25T00:25:19;8.40;99.90
17948;DHT22;9099;47.958;11.366;2023-04-25T00:27:46;8.30;99.90
17948;DHT22;9099;47.958;11.366;2023-04-25T00:30:13;8.20;99.90
17948;DHT22;9099;47.958;11.366;2023-04-25T00:32:40;8.30;99.90
17948;DHT22;9099;47.958;11.366;2023-04-25T00:35:08;8.30;99.90
17948;DHT22;9099;47.958;11.366;2023-04-25T00:37:35;8.30;99.90
17948;DHT22;9099;47.958;11.366;2023-04-25T00:40:05;8.20;99.90
17948;DHT22;9099;47.958;11.366;2023-04-25T00:42:33;8.10;99.90
17948;DHT22;9099;47.958;11.366;2023-04-25T00:45:01;8.10;99.90
17948;DHT22;9099;47.958;11.366;2023-04-25T00:47:29;8.20;99.90
17948;DHT22;9099;47.958;11.366;2023-04-25T00:49:56;8.20;99.90
17948;DHT22;9099;47.958;11.366;2023-04-25T00:52:22;8.10;99.90
17948;DHT22;9099;47.958;11.366;2023-04-25T00:54:50;8.10;99.90
17948;DHT22;9099;47.958;11.366;2023-04-25T00:57:18;8.10;99.90
17948;DHT22;9099;47.958;11.366;2023-04-25T00:59:45;8.10;99.90
17948;DHT22;9099;47.958;11.366;2023-04-25T01:02:12;8.10;99.90
17948;DHT22;9099;47.958;11.366;2023-04-25T01:04:39;8.20;99.90
17948;DHT22;9099;47.958;11.366;2023-04-25T01:07:06;8.20;99.90
17948;DHT22;9099;47.958;11.366;2023-04-25T01:09:34;8.20;99.90
17948;DHT22;9099;47.958;11.366;2023-04-25T01:12:01;8.20;99.90
17948;DHT22;9099;47.958;11.366;2023-04-25T01:14:29;8.30;99.90
17948;DHT22;9099;47.958;11.366;2023-04-25T01:16:57;8.30;99.90
17948;DHT22;9099;47.958;11.366;2023-04-25T01:19:25;8.30;99.90
17948;DHT22;9099;47.958;11.366;2023-04-25T01:21:53;8.40;99.90
17948;DHT22;9099;47.958;11.366;2023-04-25T01:24:21;8.40;99.90
17948;DHT22;9099;47.958;11.366;2023-04-25T01:26:48;8.40;99.90
17948;DHT22;9099;47.958;11.366;2023-04-25T01:29:16;8.40;99.90
17948;DHT22;9099;47.958;11.366;2023-04-25T01:31:44;8.40;99.90
17948;DHT22;9099;47.958;11.366;2023-04-25T01:34:11;8.40;99.90
17948;DHT22;9099;47.958;11.366;2023-04-25T01:36:38;8.30;99.90
17948;DHT22;9099;47.958;11.366;2023-04-25T01:39:07;8.30;99.90
17948;DHT22;9099;47.958;11.366;2023-04-25T01:41:34;8.30;99.90
17948;DHT22;9099;47.958;11.366;2023-04-25T01:44:01;8.10;99.90
17948;DHT22;9099;47.958;11.366;2023-04-25T01:46:30;8.10;99.90
17948;DHT22;9099;47.958;11.366;2023-04-25T01:48:57;8.00;99.90
17948;DHT22;9099;47.958;11.366;2023-04-25T01:51:24;8.00;99.90
17948;DHT22;9099;47.958;11.366;2023-04-25T01:53:51;8.00;99.90
17948;DHT22;9099;47.958;11.366;2023-04-25T01:56:20;8.00;99.90
17948;DHT22;9099;47.958;11.366;2023-04-25T01:58:46;8.00;99.90
17948;DHT22;9099;47.958;11.366;2023-04-25T02:01:13;8.00;99.90
17948;DHT22;9099;47.958;11.366;2023-04-25T02:03:40;7.90;99.90
17948;DHT22;9099;47.958;11.366;2023-04-25T02:06:07;7.90;99.90
17948;DHT22;9099;47.958;11.366;2023-04-25T02:08:34;7.90;99.90
17948;DHT22;9099;47.958;11.366;2023-04-25T02:11:02;7.90;99.90
17948;DHT22;9099;47.958;11.366;2023-04-25T02:13:31;7.80;99.90
17948;DHT22;9099;47.958;11.366;2023-04-25T02:15:57;7.80;99.90
17948;DHT22;9099;47.958;11.366;2023-04-25T02:18:24;7.80;99.90
17948;DHT22;9099;47.958;11.366;2023-04-25T02:20:51;7.80;99.90
17948;DHT22;9099;47.958;11.366;2023-04-25T02:23:18;7.80;99.90
17948;DHT22;9099;47.958;11.366;2023-04-25T02:25:45;7.90;99.90
17948;DHT22;9099;47.958;11.366;2023-04-25T02:28:12;7.90;99.90
17948;DHT22;9099;47.958;11.366;2023-04-25T02:30:40;7.90;99.90
17948;DHT22;9099;47.958;11.366;2023-04-25T02:33:07;7.90;99.90
17948;DHT22;9099;47.958;11.366;2023-04-25T02:35:34;7.90;99.90
17948;DHT22;9099;47.958;11.366;2023-04-25T02:38:01;7.90;99.90
17948;DHT22;9099;47.958;11.366;2023-04-25T02:40:28;7.90;99.90
17948;DHT22;9099;47.958;11.366;2023-04-25T02:42:55;7.80;99.90
17948;DHT22;9099;47.958;11.366;2023-04-25T02:45:22;7.90;99.90
17948;DHT22;9099;47.958;11.366;2023-04-25T02:47:50;7.80;99.90
17948;DHT22;9099;47.958;11.366;2023-04-25T02:50:17;7.90;99.90
17948;DHT22;9099;47.958;11.366;2023-04-25T02:52:44;7.90;99.90
17948;DHT22;9099;47.958;11.366;2023-04-25T02:55:12;7.90;99.90
17948;DHT22;9099;47.958;11.366;2023-04-25T02:57:38;8.00;99.90
17948;DHT22;9099;47.958;11.366;2023-04-25T03:00:06;8.00;99.90
17948;DHT22;9099;47.958;11.366;2023-04-25T03:02:33;8.10;99.90
17948;DHT22;9099;47.958;11.366;2023-04-25T03:05:02;8.10;99.90
17948;DHT22;9099;47.958;11.366;2023-04-25T03:07:28;8.20;99.90
17948;DHT22;9099;47.958;11.366;2023-04-25T03:09:55;8.30;99.90
17948;DHT22;9099;47.958;11.366;2023-04-25T03:12:22;8.20;99.90
17948;DHT22;9099;47.958;11.366;2023-04-25T03:14:49;8.10;99.90
17948;DHT22;9099;47.958;11.366;2023-04-25T03:17:16;7.90;99.90
17948;DHT22;9099;47.958;11.366;2023-04-25T03:19:43;7.80;99.90
17948;DHT22;9099;47.958;11.366;2023-04-25T03:22:11;7.70;99.90
17948;DHT22;9099;47.958;11.366;2023-04-25T03:24:38;7.60;99.90
17948;DHT22;9099;47.958;11.366;2023-04-25T03:27:05;7.50;99.90
17948;DHT22;9099;47.958;11.366;2023-04-25T03:29:32;7.40;99.90
17948;DHT22;9099;47.958;11.366;2023-04-25T03:31:59;7.40;99.90
17948;DHT22;9099;47.958;11.366;2023-04-25T03:34:26;7.30;99.90
17948;DHT22;9099;47.958;11.366;2023-04-25T03:36:53;7.30;99.90
17948;DHT22;9099;47.958;11.366;2023-04-25T03:39:21;7.20;99.90
17948;DHT22;9099;47.958;11.366;2023-04-25T03:41:48;7.10;99.90
17948;DHT22;9099;47.958;11.366;2023-04-25T03:44:15;7.00;99.90
17948;DHT22;9099;47.958;11.366;2023-04-25T03:46:42;7.00;99.90
17948;DHT22;9099;47.958;11.366;2023-04-25T03:49:09;7.00;99.90
17948;DHT22;9099;47.958;11.366;2023-04-25T03:51:35;7.00;99.90
17948;DHT22;9099;47.958;11.366;2023-04-25T03:54:03;7.00;99.90
17948;DHT22;9099;47.958;11.366;2023-04-25T03:56:31;6.90;99.90
17948;DHT22;9099;47.958;11.366;2023-04-25T03:58:58;7.00;99.90
17948;DHT22;9099;47.958;11.366;2023-04-25T04:01:25;6.90;99.90
17948;DHT22;9099;47.958;11.366;2023-04-25T04:03:51;7.00;99.90
17948;DHT22;9099;47.958;11.366;2023-04-25T04:06:18;7.00;99.90
17948;DHT22;9099;47.958;11.366;2023-04-25T04:08:46;7.10;99.90
17948;DHT22;9099;47.958;11.366;2023-04-25T04:11:13;7.10;99.90
17948;DHT22;9099;47.958;11.366;2023-04-25T04:13:41;7.10;99.90
17948;DHT22;9099;47.958;11.366;2023-04-25T04:16:08;7.10;99.90
17948;DHT22;9099;47.958;11.366;2023-04-25T04:18:35;7.20;99.90
17948;DHT22;9099;47.958;11.366;2023-04-25T04:21:02;7.30;99.90
17948;DHT22;9099;47.958;11.366;2023-04-25T04:23:29;7.30;99.90
17948;DHT22;9099;47.958;11.366;2023-04-25T04:25:56;7.40;99.90
17948;DHT22;9099;47.958;11.366;2023-04-25T04:28:23;7.30;99.90
17948;DHT22;9099;47.958;11.366;2023-04-25T04:30:52;7.00;99.90
17948;DHT22;9099;47.958;11.366;2023-04-25T04:33:19;6.80;99.90
17948;DHT22;9099;47.958;11.366;2023-04-25T04:35:46;6.70;99.90
17948;DHT22;9099;47.958;11.366;2023-04-25T04:38:13;6.60;99.90
17948;DHT22;9099;47.958;11.366;2023-04-25T04:40:41;6.70;99.90
17948;DHT22;9099;47.958;11.366;2023-04-25T04:43:08;6.70;99.90
17948;DHT22;9099;47.958;11.366;2023-04-25T04:45:35;6.80;99.90
17948;DHT22;9099;47.958;11.366;2023-04-25T04:48:05;6.80;99.90
17948;DHT22;9099;47.958;11.366;2023-04-25T04:50:32;7.00;99.90
17948;DHT22;9099;47.958;11.366;2023-04-25T04:52:59;7.00;99.90
17948;DHT22;9099;47.958;11.366;2023-04-25T04:55:26;7.10;99.90
17948;DHT22;9099;47.958;11.366;2023-04-25T04:57:53;7.10;99.90
17948;DHT22;9099;47.958;11.366;2023-04-25T05:00:20;7.20;99.90
17948;DHT22;9099;47.958;11.366;2023-04-25T05:02:47;7.10;99.90
17948;DHT22;9099;47.958;11.366;2023-04-25T05:05:15;7.20;99.90
17948;DHT22;9099;47.958;11.366;2023-04-25T05:07:42;7.20;99.90
17948;DHT22;9099;47.958;11.366;2023-04-25T05:10:11;7.20;99.90
17948;DHT22;9099;47.958;11.366;2023-04-25T05:12:38;7.20;99.90
17948;DHT22;9099;47.958;11.366;2023-04-25T05:15:05;7.20;99.90
17948;DHT22;9099;47.958;11.366;2023-04-25T05:17:32;7.20;99.90
17948;DHT22;9099;47.958;11.366;2023-04-25T05:19:59;7.20;99.90
17948;DHT22;9099;47.958;11.366;2023-04-25T05:22:28;7.20;99.90
17948;DHT22;9099;47.958;11.366;2023-04-25T05:24:55;7.20;99.90
17948;DHT22;9099;47.958;11.366;2023-04-25T05:27:22;7.20;99.90
17948;DHT22;9099;47.958;11.366;2023-04-25T05:29:49;7.30;99.90
17948;DHT22;9099;47.958;11.366;2023-04-25T05:32:15;7.30;99.90
17948;DHT22;9099;47.958;11.366;2023-04-25T05:34:43;7.40;99.90
17948;DHT22;9099;47.958;11.366;2023-04-25T05:37:09;7.30;99.90
17948;DHT22;9099;47.958;11.366;2023-04-25T05:39:38;7.30;99.90
17948;DHT22;9099;47.958;11.366;2023-04-25T05:42:05;7.40;99.90
17948;DHT22;9099;47.958;11.366;2023-04-25T05:44:32;7.40;99.90
17948;DHT22;9099;47.958;11.366;2023-04-25T05:46:58;7.50;99.90
17948;DHT22;9099;47.958;11.366;2023-04-25T05:49:25;7.60;99.90
17948;DHT22;9099;47.958;11.366;2023-04-25T05:51:52;7.70;99.90
17948;DHT22;9099;47.958;11.366;2023-04-25T05:54:20;7.80;99.90
17948;DHT22;9099;47.958;11.366;2023-04-25T05:56:48;8.00;99.90
17948;DHT22;9099;47.958;11.366;2023-04-25T05:59:15;8.90;99.90
17948;DHT22;9099;47.958;11.366;2023-04-25T06:01:42;10.10;99.90
17948;DHT22;9099;47.958;11.366;2023-04-25T06:04:09;11.30;99.90
17948;DHT22;9099;47.958;11.366;2023-04-25T06:06:36;12.30;99.90
17948;DHT22;9099;47.958;11.366;2023-04-25T06:09:03;12.80;99.90
17948;DHT22;9099;47.958;11.366;2023-04-25T06:11:30;12.70;99.90
17948;DHT22;9099;47.958;11.366;2023-04-25T06:13:58;12.70;99.90
17948;DHT22;9099;47.958;11.366;2023-04-25T06:16:25;12.50;99.90
17948;DHT22;9099;47.958;11.366;2023-04-25T06:18:52;12.70;99.90
17948;DHT22;9099;47.958;11.366;2023-04-25T06:21:18;12.80;99.90
17948;DHT22;9099;47.958;11.366;2023-04-25T06:23:45;12.50;99.90
17948;DHT22;9099;47.958;11.366;2023-04-25T06:26:12;12.10;99.90
17948;DHT22;9099;47.958;11.366;2023-04-25T06:28:39;11.60;99.90
17948;DHT22;9099;47.958;11.366;2023-04-25T06:31:07;11.20;99.90
17948;DHT22;9099;47.958;11.366;2023-04-25T06:33:34;11.40;99.90
17948;DHT22;9099;47.958;11.366;2023-04-25T06:36:01;11.50;99.90
17948;DHT22;9099;47.958;11.366;2023-04-25T06:38:28;11.40;99.90
17948;DHT22;9099;47.958;11.366;2023-04-25T06:40:55;11.30;99.90
17948;DHT22;9099;47.958;11.366;2023-04-25T06:43:22;11.10;99.90
17948;DHT22;9099;47.958;11.366;2023-04-25T06:45:49;11.00;99.90
17948;DHT22;9099;47.958;11.366;2023-04-25T06:48:17;10.80;99.90
17948;DHT22;9099;47.958;11.366;2023-04-25T06:50:44;10.70;99.90
17948;DHT22;9099;47.958;11.366;2023-04-25T06:53:10;10.60;99.90
17948;DHT22;9099;47.958;11.366;2023-04-25T06:55:38;10.70;99.90
17948;DHT22;9099;47.958;11.366;2023-04-25T06:58:05;10.90;99.90
17948;DHT22;9099;47.958;11.366;2023-04-25T07:00:32;11.00;99.90
17948;DHT22;9099;47.958;11.366;2023-04-25T07:02:59;11.00;99.90
17948;DHT22;9099;47.958;11.366;2023-04-25T07:05:27;11.10;99.90
17948;DHT22;9099;47.958;11.366;2023-04-25T07:07:54;11.40;99.90
17948;DHT22;9099;47.958;11.366;2023-04-25T07:10:21;11.70;99.90
17948;DHT22;9099;47.958;11.366;2023-04-25T07:12:48;12.00;99.90
17948;DHT22;9099;47.958;11.366;2023-04-25T07:15:15;12.20;99.90
17948;DHT22;9099;47.958;11.366;2023-04-25T07:17:42;12.40;99.90
17948;DHT22;9099;47.958;11.366;2023-04-25T07:20:09;12.60;99.90
17948;DHT22;9099;47.958;11.366;2023-04-25T07:22:38;12.50;99.90
17948;DHT22;9099;47.958;11.366;2023-04-25T07:25:05;12.50;99.90
17948;DHT22;9099;47.958;11.366;2023-04-25T07:27:34;12.70;99.90
17948;DHT22;9099;47.958;11.366;2023-04-25T07:30:01;12.80;99.90
17948;DHT22;9099;47.958;11.366;2023-04-25T07:32:28;12.90;99.90
17948;DHT22;9099;47.958;11.366;2023-04-25T07:34:55;12.90;99.90
17948;DHT22;9099;47.958;11.366;2023-04-25T07:37:22;13.00;99.90
17948;DHT22;9099;47.958;11.366;2023-04-25T07:39:50;12.90;99.90
17948;DHT22;9099;47.958;11.366;2023-04-25T07:42:17;12.90;99.90
17948;DHT22;9099;47.958;11.366;2023-04-25T07:44:44;13.20;99.90
17948;DHT22;9099;47.958;11.366;2023-04-25T07:47:11;13.20;99.90
17948;DHT22;9099;47.958;11.366;2023-04-25T07:49:38;13.10;99.90
17948;DHT22;9099;47.958;11.366;2023-04-25T07:52:06;13.00;99.90
17948;DHT22;9099;47.958;11.366;2023-04-25T07:54:33;13.00;99.90
17948;DHT22;9099;47.958;11.366;2023-04-25T07:57:01;12.90;99.90
17948;DHT22;9099;47.958;11.366;2023-04-25T07:59:28;12.90;99.90
17948;DHT22;9099;47.958;11.366;2023-04-25T08:01:55;13.20;99.90
17948;DHT22;9099;47.958;11.366;2023-04-25T08:04:22;13.40;99.90
17948;DHT22;9099;47.958;11.366;2023-04-25T08:06:50;13.60;99.90
17948;DHT22;9099;47.958;11.366;2023-04-25T08:09:17;14.00;99.90
17948;DHT22;9099;47.958;11.366;2023-04-25T08:11:44;14.00;99.90
17948;DHT22;9099;47.958;11.366;2023-04-25T08:14:13;13.80;99.90
17948;DHT22;9099;47.958;11.366;2023-04-25T08:16:40;13.40;99.90
17948;DHT22;9099;47.958;11.366;2023-04-25T08:19:07;13.10;99.90
17948;DHT22;9099;47.958;11.366;2023-04-25T08:21:34;12.60;99.90
17948;DHT22;9099;47.958;11.366;2023-04-25T08:24:01;12.40;99.90
17948;DHT22;9099;47.958;11.366;2023-04-25T08:26:28;12.20;99.90
17948;DHT22;9099;47.958;11.366;2023-04-25T08:28:55;12.10;99.90
17948;DHT22;9099;47.958;11.366;2023-04-25T08:31:23;12.20;99.90
17948;DHT22;9099;47.958;11.366;2023-04-25T08:33:50;12.20;99.90
17948;DHT22;9099;47.958;11.366;2023-04-25T08:36:17;12.30;99.90
17948;DHT22;9099;47.958;11.366;2023-04-25T08:38:44;12.40;99.90
17948;DHT22;9099;47.958;11.366;2023-04-25T08:41:11;12.60;99.90
17948;DHT22;9099;47.958;11.366;2023-04-25T08:43:42;13.60;99.90
17948;DHT22;9099;47.958;11.366;2023-04-25T08:46:11;14.90;99.90
17948;DHT22;9099;47.958;11.366;2023-04-25T08:48:41;14.90;99.90
17948;DHT22;9099;47.958;11.366;2023-04-25T08:51:10;15.00;99.90
17948;DHT22;9099;47.958;11.366;2023-04-25T08:53:37;15.20;99.90
17948;DHT22;9099;47.958;11.366;2023-04-25T08:56:08;15.90;99.90
17948;DHT22;9099;47.958;11.366;2023-04-25T08:58:38;16.10;99.90
17948;DHT22;9099;47.958;11.366;2023-04-25T09:01:05;16.30;99.90
17948;DHT22;9099;47.958;11.366;2023-04-25T09:03:32;16.50;99.90
17948;DHT22;9099;47.958;11.366;2023-04-25T09:06:01;16.20;99.90
17948;DHT22;9099;47.958;11.366;2023-04-25T09:08:28;15.80;99.90
17948;DHT22;9099;47.958;11.366;2023-04-25T09:10:55;15.40;99.90
17948;DHT22;9099;47.958;11.366;2023-04-25T09:13:25;14.90;99.90
17948;DHT22;9099;47.958;11.366;2023-04-25T09:15:54;15.50;99.90
17948;DHT22;9099;47.958;11.366;2023-04-25T09:18:22;16.60;99.90
17948;DHT22;9099;47.958;11.366;2023-04-25T09:20:51;17.70;99.90
17948;DHT22;9099;47.958;11.366;2023-04-25T09:23:20;19.10;99.90
17948;DHT22;9099;47.958;11.366;2023-04-25T09:25:48;19.70;99.90
17948;DHT22;9099;47.958;11.366;2023-04-25T09:28:15;19.50;99.90
17948;DHT22;9099;47.958;11.366;2023-04-25T09:30:42;19.50;99.90
17948;DHT22;9099;47.958;11.366;2023-04-25T09:33:10;18.90;99.90
17948;DHT22;9099;47.958;11.366;2023-04-25T09:35:39;17.90;99.90
17948;DHT22;9099;47.958;11.366;2023-04-25T09:38:10;17.00;99.90
17948;DHT22;9099;47.958;11.366;2023-04-25T09:40:43;16.00;99.90
17948;DHT22;9099;47.958;11.366;2023-04-25T09:43:10;15.60;99.90
17948;DHT22;9099;47.958;11.366;2023-04-25T09:45:41;15.20;99.90
17948;DHT22;9099;47.958;11.366;2023-04-25T09:48:11;14.90;99.90
17948;DHT22;9099;47.958;11.366;2023-04-25T09:50:41;14.90;99.90
17948;DHT22;9099;47.958;11.366;2023-04-25T09:53:08;15.90;99.90
17948;DHT22;9099;47.958;11.366;2023-04-25T09:55:35;17.20;99.90
17948;DHT22;9099;47.958;11.366;2023-04-25T09:58:05;18.60;99.90
17948;DHT22;9099;47.958;11.366;2023-04-25T10:00:33;19.10;99.90
17948;DHT22;9099;47.958;11.366;2023-04-25T10:03:01;18.70;99.90
17948;DHT22;9099;47.958;11.366;2023-04-25T10:05:30;18.90;99.90
17948;DHT22;9099;47.958;11.366;2023-04-25T10:07:59;19.10;99.90
17948;DHT22;9099;47.958;11.366;2023-04-25T10:10:30;19.20;99.90
17948;DHT22;9099;47.958;11.366;2023-04-25T10:13:04;18.50;99.90
17948;DHT22;9099;47.958;11.366;2023-04-25T10:15:34;17.70;99.90
17948;DHT22;9099;47.958;11.366;2023-04-25T10:18:02;17.10;99.90
17948;DHT22;9099;47.958;11.366;2023-04-25T10:20:29;16.50;99.90
17948;DHT22;9099;47.958;11.366;2023-04-25T10:23:02;15.90;99.90
17948;DHT22;9099;47.958;11.366;2023-04-25T10:25:30;15.40;99.90
17948;DHT22;9099;47.958;11.366;2023-04-25T10:27:59;15.20;99.90
17948;DHT22;9099;47.958;11.366;2023-04-25T10:30:28;15.30;99.90
17948;DHT22;9099;47.958;11.366;2023-04-25T10:32:56;15.40;99.90
17948;DHT22;9099;47.958;11.366;2023-04-25T10:35:25;15.10;99.90
17948;DHT22;9099;47.958;11.366;2023-04-25T10:37:59;14.50;99.90
17948;DHT22;9099;47.958;11.366;2023-04-25T10:40:27;13.70;99.90
17948;DHT22;9099;47.958;11.366;2023-04-25T10:42:54;13.00;99.90
17948;DHT22;9099;47.958;11.366;2023-04-25T10:45:21;12.40;99.90
17948;DHT22;9099;47.958;11.366;2023-04-25T10:47:50;11.90;99.90
17948;DHT22;9099;47.958;11.366;2023-04-25T10:50:17;11.60;99.90
17948;DHT22;9099;47.958;11.366;2023-04-25T10:52:44;11.20;99.90
17948;DHT22;9099;47.958;11.366;2023-04-25T10:55:11;10.90;99.90
17948;DHT22;9099;47.958;11.366;2023-04-25T10:57:39;10.80;99.90
17948;DHT22;9099;47.958;11.366;2023-04-25T11:00:12;10.70;99.90
17948;DHT22;9099;47.958;11.366;2023-04-25T11:02:47;10.60;99.90
17948;DHT22;9099;47.958;11.366;2023-04-25T11:05:22;10.60;99.90
17948;DHT22;9099;47.958;11.366;2023-04-25T11:07:51;10.40;99.90
17948;DHT22;9099;47.958;11.366;2023-04-25T11:10:19;10.40;99.90
17948;DHT22;9099;47.958;11.366;2023-04-25T11:12:46;10.40;99.90
17948;DHT22;9099;47.958;11.366;2023-04-25T11:15:14;10.30;99.90
17948;DHT22;9099;47.958;11.366;2023-04-25T11:17:41;10.10;99.90
17948;DHT22;9099;47.958;11.366;2023-04-25T11:20:09;9.90;99.90
17948;DHT22;9099;47.958;11.366;2023-04-25T11:22:39;9.80;99.90
17948;DHT22;9099;47.958;11.366;2023-04-25T11:25:08;9.70;99.90
17948;DHT22;9099;47.958;11.366;2023-04-25T11:27:38;9.70;99.90
17948;DHT22;9099;47.958;11.366;2023-04-25T11:30:11;9.60;99.90
17948;DHT22;9099;47.958;11.366;2023-04-25T11:32:39;9.60;99.90
17948;DHT22;9099;47.958;11.366;2023-04-25T11:35:07;9.40;99.90
17948;DHT22;9099;47.958;11.366;2023-04-25T11:37:33;9.40;99.90
17948;DHT22;9099;47.958;11.366;2023-04-25T11:40:02;9.30;99.90
17948;DHT22;9099;47.958;11.366;2023-04-25T11:42:32;9.10;99.90
17948;DHT22;9099;47.958;11.366;2023-04-25T11:44:58;9.00;99.90
17948;DHT22;9099;47.958;11.366;2023-04-25T11:47:28;8.90;99.90
17948;DHT22;9099;47.958;11.366;2023-04-25T11:49:57;8.90;99.90
17948;DHT22;9099;47.958;11.366;2023-04-25T11:52:24;9.00;99.90
17948;DHT22;9099;47.958;11.366;2023-04-25T11:54:51;9.10;99.90
17948;DHT22;9099;47.958;11.366;2023-04-25T11:57:20;9.20;99.90
17948;DHT22;9099;47.958;11.366;2023-04-25T11:59:47;9.40;99.90
17948;DHT22;9099;47.958;11.366;2023-04-25T12:02:24;9.50;99.90
17948;DHT22;9099;47.958;11.366;2023-04-25T12:04:52;9.70;99.90
17948;DHT22;9099;47.958;11.366;2023-04-25T12:07:18;10.00;99.90
17948;DHT22;9099;47.958;11.366;2023-04-25T12:09:51;10.20;99.90
17948;DHT22;9099;47.958;11.366;2023-04-25T12:12:20;10.30;99.90
17948;DHT22;9099;47.958;11.366;2023-04-25T12:14:47;10.50;99.90
17948;DHT22;9099;47.958;11.366;2023-04-25T12:17:14;10.50;99.90
17948;DHT22;9099;47.958;11.366;2023-04-25T12:19:41;10.60;99.90
17948;DHT22;9099;47.958;11.366;2023-04-25T12:22:19;10.80;99.90
17948;DHT22;9099;47.958;11.366;2023-04-25T12:24:47;10.90;99.90
17948;DHT22;9099;47.958;11.366;2023-04-25T12:27:15;10.90;99.90
17948;DHT22;9099;47.958;11.366;2023-04-25T12:29:52;10.80;99.90
17948;DHT22;9099;47.958;11.366;2023-04-25T12:32:20;10.70;99.90
17948;DHT22;9099;47.958;11.366;2023-04-25T12:34:47;10.50;99.90
17948;DHT22;9099;47.958;11.366;2023-04-25T12:37:14;10.40;99.90
17948;DHT22;9099;47.958;11.366;2023-04-25T12:39:41;10.40;99.90
17948;DHT22;9099;47.958;11.366;2023-04-25T12:42:08;10.30;99.90
17948;DHT22;9099;47.958;11.366;2023-04-25T12:44:37;10.20;99.90
17948;DHT22;9099;47.958;11.366;2023-04-25T12:47:05;10.00;99.90
17948;DHT22;9099;47.958;11.366;2023-04-25T12:49:32;10.00;99.90
17948;DHT22;9099;47.958;11.366;2023-04-25T12:51:59;10.00;99.90
17948;DHT22;9099;47.958;11.366;2023-04-25T12:54:26;10.10;99.90
17948;DHT22;9099;47.958;11.366;2023-04-25T12:56:53;10.10;99.90
17948;DHT22;9099;47.958;11.366;2023-04-25T12:59:20;10.20;99.90
17948;DHT22;9099;47.958;11.366;2023-04-25T13:01:47;10.20;99.90
17948;DHT22;9099;47.958;11.366;2023-04-25T13:04:15;10.40;99.90
17948;DHT22;9099;47.958;11.366;2023-04-25T13:06:43;10.50;99.90
17948;DHT22;9099;47.958;11.366;2023-04-25T13:09:09;10.40;99.90
17948;DHT22;9099;47.958;11.366;2023-04-25T13:11:37;10.40;99.90
17948;DHT22;9099;47.958;11.366;2023-04-25T13:14:05;10.40;99.90
17948;DHT22;9099;47.958;11.366;2023-04-25T13:16:32;10.50;99.90
17948;DHT22;9099;47.958;11.366;2023-04-25T13:18:59;10.50;99.90
17948;DHT22;9099;47.958;11.366;2023-04-25T13:21:29;10.30;99.90
17948;DHT22;9099;47.958;11.366;2023-04-25T13:23:57;10.30;99.90
17948;DHT22;9099;47.958;11.366;2023-04-25T13:26:24;10.30;99.90
17948;DHT22;9099;47.958;11.366;2023-04-25T13:28:51;10.30;99.90
17948;DHT22;9099;47.958;11.366;2023-04-25T13:31:18;10.30;99.90
17948;DHT22;9099;47.958;11.366;2023-04-25T13:33:45;10.30;99.90
17948;DHT22;9099;47.958;11.366;2023-04-25T13:36:11;10.30;99.90
17948;DHT22;9099;47.958;11.366;2023-04-25T13:38:40;10.30;99.90
17948;DHT22;9099;47.958;11.366;2023-04-25T13:41:09;10.20;99.90
17948;DHT22;9099;47.958;11.366;2023-04-25T13:43:36;10.10;99.90
17948;DHT22;9099;47.958;11.366;2023-04-25T13:46:03;10.00;99.90
17948;DHT22;9099;47.958;11.366;2023-04-25T13:48:30;10.00;99.90
17948;DHT22;9099;47.958;11.366;2023-04-25T13:50:57;10.10;99.90
17948;DHT22;9099;47.958;11.366;2023-04-25T13:53:24;10.20;99.90
17948;DHT22;9099;47.958;11.366;2023-04-25T13:55:52;10.40;99.90
17948;DHT22;9099;47.958;11.366;2023-04-25T13:58:19;10.60;99.90
17948;DHT22;9099;47.958;11.366;2023-04-25T14:00:46;10.60;99.90
17948;DHT22;9099;47.958;11.366;2023-04-25T14:03:13;10.50;99.90
17948;DHT22;9099;47.958;11.366;2023-04-25T14:05:40;10.50;99.90
17948;DHT22;9099;47.958;11.366;2023-04-25T14:08:09;10.40;99.90
17948;DHT22;9099;47.958;11.366;2023-04-25T14:10:37;10.20;99.90
17948;DHT22;9099;47.958;11.366;2023-04-25T14:13:05;9.90;99.90
17948;DHT22;9099;47.958;11.366;2023-04-25T14:15:32;9.50;99.90
17948;DHT22;9099;47.958;11.366;2023-04-25T14:18:00;9.40;99.90
17948;DHT22;9099;47.958;11.366;2023-04-25T14:20:27;9.30;99.90
17948;DHT22;9099;47.958;11.366;2023-04-25T14:22:54;9.10;99.90
17948;DHT22;9099;47.958;11.366;2023-04-25T14:25:21;8.90;99.90
17948;DHT22;9099;47.958;11.366;2023-04-25T14:27:48;8.80;99.90
17948;DHT22;9099;47.958;11.366;2023-04-25T14:30:18;8.90;99.90
17948;DHT22;9099;47.958;11.366;2023-04-25T14:32:45;8.90;99.90
17948;DHT22;9099;47.958;11.366;2023-04-25T14:35:12;9.10;99.90
17948;DHT22;9099;47.958;11.366;2023-04-25T14:37:39;9.30;99.90
17948;DHT22;9099;47.958;11.366;2023-04-25T14:40:07;9.60;99.90
17948;DHT22;9099;47.958;11.366;2023-04-25T14:42:36;9.60;99.90
17948;DHT22;9099;47.958;11.366;2023-04-25T14:45:04;9.50;99.90
17948;DHT22;9099;47.958;11.366;2023-04-25T14:47:33;9.50;99.90
17948;DHT22;9099;47.958;11.366;2023-04-25T14:50:00;9.50;99.90
17948;DHT22;9099;47.958;11.366;2023-04-25T14:52:27;9.60;99.90
17948;DHT22;9099;47.958;11.366;2023-04-25T14:54:54;9.70;99.90
17948;DHT22;9099;47.958;11.366;2023-04-25T14:57:21;9.80;99.90
17948;DHT22;9099;47.958;11.366;2023-04-25T14:59:47;9.70;99.90
17948;DHT22;9099;47.958;11.366;2023-04-25T15:02:15;9.80;99.90
17948;DHT22;9099;47.958;11.366;2023-04-25T15:04:43;9.70;99.90
17948;DHT22;9099;47.958;11.366;2023-04-25T15:07:10;9.80;99.90
17948;DHT22;9099;47.958;11.366;2023-04-25T15:09:36;9.70;99.90
17948;DHT22;9099;47.958;11.366;2023-04-25T15:12:03;9.50;99.90
17948;DHT22;9099;47.958;11.366;2023-04-25T15:14:30;9.50;99.90
17948;DHT22;9099;47.958;11.366;2023-04-25T15:16:59;9.60;99.90
17948;DHT22;9099;47.958;11.366;2023-04-25T15:19:26;9.60;99.90
17948;DHT22;9099;47.958;11.366;2023-04-25T15:21:55;9.60;99.90
17948;DHT22;9099;47.958;11.366;2023-04-25T15:24:22;9.60;99.90
17948;DHT22;9099;47.958;11.366;2023-04-25T15:26:48;9.60;99.90
17948;DHT22;9099;47.958;11.366;2023-04-25T15:29:16;9.90;99.90
17948;DHT22;9099;47.958;11.366;2023-04-25T15:31:42;9.90;99.90
17948;DHT22;9099;47.958;11.366;2023-04-25T15:34:09;10.00;99.90
17948;DHT22;9099;47.958;11.366;2023-04-25T15:36:36;10.00;99.90
17948;DHT22;9099;47.958;11.366;2023-04-25T15:39:04;9.90;99.90
17948;DHT22;9099;47.958;11.366;2023-04-25T15:41:31;9.80;99.90